Aviation Digital Data Service (ADDS)

Output produced by METARs form (0058 UTC 01 November 2014)
found at http://aviationweather.gov/adds/metars/
 
KALB 312332Z 0100/0124 09003KT P6SM FEW050 BKN060 BKN260 
     FM011400 02006KT P6SM OVC050 
     FM011700 36009KT P6SM -SHRA OVC040